createdAt,value
2023-01-23T00:01:15.509Z,99239.53
2023-01-23T00:03:42.502Z,99243.53
2023-01-23T00:06:12.666Z,99232.75
2023-01-23T00:08:40.799Z,99238.28
2023-01-23T00:11:10.752Z,99242.25
2023-01-23T00:13:37.527Z,99247.50
2023-01-23T00:16:09.893Z,99250.63
2023-01-23T00:18:36.817Z,99242.19
2023-01-23T00:21:08.566Z,99244.16
2023-01-23T00:23:35.510Z,99251.38
2023-01-23T00:26:07.346Z,99256.94
2023-01-23T00:28:34.015Z,99257.75
2023-01-23T00:31:21.709Z,99267.94
2023-01-23T00:33:48.347Z,99267.50
2023-01-23T00:36:15.693Z,99269.03
2023-01-23T00:38:42.359Z,99267.31
2023-01-23T00:41:09.393Z,99267.75
2023-01-23T00:43:35.993Z,99271.31
2023-01-23T00:46:02.679Z,99264.63
2023-01-23T00:48:29.370Z,99257.72
2023-01-23T00:50:56.003Z,99263.22
2023-01-23T00:53:23.233Z,99274.16
2023-01-23T00:55:49.927Z,99260.31
2023-01-23T00:58:17.017Z,99267.22
2023-01-23T01:00:43.585Z,99267.94
2023-01-23T01:03:10.524Z,99265.13
2023-01-23T01:05:37.266Z,99260.06
2023-01-23T01:08:04.933Z,99262.75
2023-01-23T01:10:32.914Z,99264.41
2023-01-23T01:13:01.232Z,99267.97
2023-01-23T01:15:28.737Z,99262.84
2023-01-23T01:17:55.353Z,99267.22
2023-01-23T01:20:23.890Z,99271.59
2023-01-23T01:22:50.934Z,99255.53
2023-01-23T01:25:18.086Z,99262.13
2023-01-23T01:27:44.880Z,99256.34
2023-01-23T01:30:12.567Z,99258.06
2023-01-23T01:32:40.954Z,99262.44
2023-01-23T01:35:08.779Z,99269.53
2023-01-23T01:37:37.683Z,99267.69
2023-01-23T01:40:06.445Z,99266.41
2023-01-23T01:42:39.767Z,99271.66
2023-01-23T01:45:07.120Z,99271.78
2023-01-23T01:47:34.887Z,99257.25
2023-01-23T01:50:04.791Z,99270.97
2023-01-23T01:52:31.453Z,99274.81
2023-01-23T01:55:01.573Z,99274.13
2023-01-23T01:57:35.837Z,99285.81
2023-01-23T02:00:22.969Z,99284.81
2023-01-23T02:02:58.200Z,99267.59
2023-01-23T02:05:36.583Z,99293.50
2023-01-23T02:08:07.818Z,99298.03
2023-01-23T02:10:39.180Z,99293.75
2023-01-23T02:13:26.668Z,99299.84
2023-01-23T02:15:53.401Z,99306.66
2023-01-23T02:18:21.393Z,99299.19
2023-01-23T02:20:50.952Z,99309.38
2023-01-23T02:23:29.205Z,99315.31
2023-01-23T02:26:01.753Z,99318.13
2023-01-23T02:28:40.737Z,99322.25
2023-01-23T02:31:08.381Z,99320.25
2023-01-23T02:33:34.932Z,99330.31
2023-01-23T02:36:03.487Z,99316.16
2023-01-23T02:38:51.174Z,99333.28
2023-01-23T02:41:24.388Z,99336.13
2023-01-23T02:43:52.417Z,99343.47
2023-01-23T02:46:20.666Z,99337.09
2023-01-23T02:48:48.530Z,99339.66
2023-01-23T02:51:17.158Z,99345.28
2023-01-23T02:53:44.428Z,99349.56
2023-01-23T02:56:11.117Z,99343.88
2023-01-23T02:58:56.230Z,99351.94
2023-01-23T03:01:24.858Z,99338.25
2023-01-23T03:03:53.518Z,99332.16
2023-01-23T03:06:21.102Z,99340.22
2023-01-23T03:08:49.143Z,99346.97
2023-01-23T03:11:18.501Z,99333.31
2023-01-23T03:13:46.918Z,99332.00
2023-01-23T03:16:13.680Z,99349.94
2023-01-23T03:18:53.606Z,99352.34
2023-01-23T03:21:21.188Z,99344.13
2023-01-23T03:23:48.430Z,99355.91
2023-01-23T03:26:15.953Z,99356.59
2023-01-23T03:29:00.735Z,99356.16
2023-01-23T03:31:27.466Z,99349.66
2023-01-23T03:33:54.120Z,99340.59
2023-01-23T03:36:21.080Z,99360.53
2023-01-23T03:39:06.128Z,99367.59
2023-01-23T03:41:32.723Z,99352.03
2023-01-23T03:43:59.319Z,99357.41
2023-01-23T03:46:25.926Z,99357.00
2023-01-23T03:48:52.520Z,99354.03
2023-01-23T03:51:19.151Z,99362.09
2023-01-23T03:53:45.757Z,99359.13
2023-01-23T03:56:12.313Z,99361.53
2023-01-23T03:58:38.862Z,99369.88
2023-01-23T04:01:07.037Z,99368.72
2023-01-23T04:03:33.612Z,99369.88
2023-01-23T04:06:00.432Z,99373.53
2023-01-23T04:08:27.305Z,99372.69
2023-01-23T04:11:01.653Z,99367.06
2023-01-23T04:13:28.254Z,99374.78
2023-01-23T04:15:54.945Z,99377.63
2023-01-23T04:18:21.570Z,99381.44
2023-01-23T04:20:48.136Z,99379.19
2023-01-23T04:23:14.790Z,99381.72
2023-01-23T04:25:41.420Z,99384.13
2023-01-23T04:28:08.023Z,99387.09
2023-01-23T04:30:34.704Z,99376.91
2023-01-23T04:33:01.375Z,99397.53
2023-01-23T04:35:28.197Z,99404.50
2023-01-23T04:37:54.808Z,99394.84
2023-01-23T04:40:21.686Z,99396.13
2023-01-23T04:42:48.485Z,99394.84
2023-01-23T04:45:15.120Z,99398.13
2023-01-23T04:47:41.694Z,99397.25
2023-01-23T04:50:08.765Z,99401.47
2023-01-23T04:52:35.358Z,99407.72
2023-01-23T04:55:02.060Z,99413.38
2023-01-23T04:57:28.715Z,99411.25
2023-01-23T04:59:55.365Z,99409.81
2023-01-23T05:02:21.995Z,99425.09
2023-01-23T05:04:48.613Z,99416.91
2023-01-23T05:07:15.652Z,99421.53
2023-01-23T05:09:42.271Z,99423.97
2023-01-23T05:12:08.878Z,99423.38
2023-01-23T05:14:35.559Z,99429.47
2023-01-23T05:17:02.195Z,99430.59
2023-01-23T05:19:28.832Z,99432.69
2023-01-23T05:21:55.431Z,99441.34
2023-01-23T05:24:22.028Z,99445.00
2023-01-23T05:26:48.697Z,99444.84
2023-01-23T05:29:15.369Z,99455.59
2023-01-23T05:31:42.044Z,99446.28
2023-01-23T05:34:08.602Z,99452.63
2023-01-23T05:36:35.180Z,99445.28
2023-01-23T05:39:01.814Z,99454.16
2023-01-23T05:41:28.369Z,99456.44
2023-01-23T05:43:54.947Z,99457.88
2023-01-23T05:46:21.740Z,99457.72
2023-01-23T05:48:50.658Z,99461.97
2023-01-23T05:51:18.743Z,99459.13
2023-01-23T05:53:45.549Z,99458.72
2023-01-23T05:56:12.791Z,99470.03
2023-01-23T05:58:39.361Z,99458.94
2023-01-23T06:01:05.972Z,99462.66
2023-01-23T06:03:33.258Z,99472.44
2023-01-23T06:06:02.134Z,99467.47
2023-01-23T06:08:29.001Z,99474.38
2023-01-23T06:10:58.604Z,99478.22
2023-01-23T06:13:26.779Z,99463.06
2023-01-23T06:15:53.623Z,99482.31
2023-01-23T06:18:20.696Z,99484.56
2023-01-23T06:20:47.993Z,99466.72
2023-01-23T06:23:15.344Z,99487.97
2023-01-23T06:25:42.707Z,99497.56
2023-01-23T06:28:09.360Z,99489.69
2023-01-23T06:30:37.146Z,99499.97
2023-01-23T06:33:03.795Z,99501.50
2023-01-23T06:35:30.386Z,99488.06
2023-01-23T06:37:57.036Z,99500.94
2023-01-23T06:40:23.704Z,99503.16
2023-01-23T06:42:51.042Z,99510.25
2023-01-23T06:45:17.772Z,99504.00
2023-01-23T06:47:44.510Z,99510.53
2023-01-23T06:50:11.495Z,99502.75
2023-01-23T06:52:38.205Z,99507.66
2023-01-23T06:55:06.604Z,99513.91
2023-01-23T06:57:34.671Z,99513.66
2023-01-23T07:00:01.315Z,99510.53
2023-01-23T07:02:28.153Z,99514.38
2023-01-23T07:04:54.810Z,99511.56
2023-01-23T07:07:21.405Z,99510.31
2023-01-23T07:09:48.023Z,99527.69
2023-01-23T07:12:14.572Z,99527.50
2023-01-23T07:14:41.227Z,99530.66
2023-01-23T07:17:07.837Z,99524.44
2023-01-23T07:19:34.436Z,99538.72
2023-01-23T07:22:01.476Z,99532.34
2023-01-23T07:24:30.060Z,99537.56
2023-01-23T07:26:56.652Z,99534.66
2023-01-23T07:29:23.628Z,99542.69
2023-01-23T07:31:50.305Z,99544.53
2023-01-23T07:34:16.974Z,99550.31
2023-01-23T07:36:43.783Z,99545.06
2023-01-23T07:39:10.399Z,99543.81
2023-01-23T07:41:37.032Z,99546.06
2023-01-23T07:44:03.635Z,99548.47
2023-01-23T07:46:30.405Z,99561.72
2023-01-23T07:48:57.067Z,99551.50
2023-01-23T07:51:23.743Z,99550.81
2023-01-23T07:53:50.486Z,99543.91
2023-01-23T07:56:17.141Z,99546.13
2023-01-23T07:58:43.682Z,99537.50
2023-01-23T08:01:11.358Z,99544.69
2023-01-23T08:03:38.057Z,99541.22
2023-01-23T08:06:04.888Z,99556.19
2023-01-23T08:08:31.522Z,99549.44
2023-01-23T08:10:58.123Z,99550.31
2023-01-23T08:13:24.695Z,99543.31
2023-01-23T08:15:53.413Z,99548.59
2023-01-23T08:18:20.156Z,99560.75
2023-01-23T08:20:55.761Z,99544.47
2023-01-23T08:23:31.050Z,99541.94
2023-01-23T08:25:59.978Z,99557.78
2023-01-23T08:28:26.608Z,99554.13
2023-01-23T08:30:54.538Z,99556.91
2023-01-23T08:33:22.347Z,99555.78
2023-01-23T08:35:51.229Z,99564.91
2023-01-23T08:38:19.236Z,99564.47
2023-01-23T08:40:47.716Z,99559.41
2023-01-23T08:43:14.888Z,99572.09
2023-01-23T08:45:46.049Z,99554.41
2023-01-23T08:48:12.707Z,99568.34
2023-01-23T08:50:39.403Z,99574.56
2023-01-23T08:53:06.608Z,99571.41
2023-01-23T08:55:36.149Z,99576.06
2023-01-23T08:58:03.118Z,99572.19
2023-01-23T09:00:30.486Z,99570.25
2023-01-23T09:02:59.839Z,99575.06
2023-01-23T09:05:28.959Z,99575.81
2023-01-23T09:07:56.753Z,99568.81
2023-01-23T09:10:23.701Z,99568.22
2023-01-23T09:12:54.860Z,99571.16
2023-01-23T09:15:22.562Z,99569.56
2023-01-23T09:17:50.051Z,99575.41
2023-01-23T09:20:17.696Z,99574.66
2023-01-23T09:22:44.687Z,99565.66
2023-01-23T09:25:12.302Z,99547.25
2023-01-23T09:27:38.951Z,99552.88
2023-01-23T09:30:06.237Z,99545.69
2023-01-23T09:32:33.067Z,99548.47
2023-01-23T09:34:59.624Z,99551.53
2023-01-23T09:37:29.079Z,99554.53
2023-01-23T09:39:55.668Z,99554.84
2023-01-23T09:42:31.433Z,99560.88
2023-01-23T09:45:03.536Z,99546.81
2023-01-23T09:47:39.001Z,99559.19
2023-01-23T09:50:18.535Z,99558.19
2023-01-23T09:52:49.745Z,99551.53
2023-01-23T09:55:25.102Z,99550.59
2023-01-23T09:57:57.436Z,99545.78
2023-01-23T10:00:33.354Z,99547.72
2023-01-23T10:03:11.439Z,99543.31
2023-01-23T10:05:50.437Z,99531.88
2023-01-23T10:08:44.822Z,99538.38
2023-01-23T10:11:33.011Z,99543.31
2023-01-23T10:14:11.637Z,99541.50
2023-01-23T10:17:01.834Z,99538.22
2023-01-23T10:19:46.792Z,99543.94
2023-01-23T10:22:28.596Z,99550.19
2023-01-23T10:24:57.964Z,99545.41
2023-01-23T10:27:43.293Z,99549.28
2023-01-23T10:30:25.114Z,99540.00
2023-01-23T10:32:57.850Z,99541.69
2023-01-23T10:35:44.715Z,99545.94
2023-01-23T10:38:25.474Z,99547.56
2023-01-23T10:41:10.731Z,99546.38
2023-01-23T10:43:37.411Z,99539.41
2023-01-23T10:46:14.556Z,99544.78
2023-01-23T10:48:43.902Z,99542.03
2023-01-23T10:51:38.055Z,99540.06
2023-01-23T10:54:06.599Z,99536.78
2023-01-23T10:56:36.367Z,99533.47
2023-01-23T10:59:05.519Z,99536.16
2023-01-23T11:01:36.493Z,99530.56
2023-01-23T11:04:31.557Z,99531.47
2023-01-23T11:07:09.094Z,99534.16
2023-01-23T11:09:55.735Z,99522.31
2023-01-23T11:12:25.797Z,99540.31
2023-01-23T11:15:12.100Z,99532.06
2023-01-23T11:17:39.613Z,99530.94
2023-01-23T11:20:28.758Z,99532.28
2023-01-23T11:23:06.100Z,99523.13
2023-01-23T11:25:53.009Z,99528.00
2023-01-23T11:28:34.072Z,99530.41
2023-01-23T11:31:16.423Z,99526.44
2023-01-23T11:33:54.979Z,99522.31
2023-01-23T11:36:38.573Z,99534.84
2023-01-23T11:39:39.084Z,99537.59
2023-01-23T11:42:05.735Z,99534.22
2023-01-23T11:44:45.009Z,99534.47
2023-01-23T11:47:13.886Z,99530.56
2023-01-23T11:50:17.697Z,99523.31
2023-01-23T11:53:12.278Z,99530.72
2023-01-23T11:55:57.806Z,99534.09
2023-01-23T11:58:27.407Z,99540.97
2023-01-23T12:01:31.422Z,99534.75
2023-01-23T12:04:21.973Z,99533.69
2023-01-23T12:07:15.573Z,99541.59
2023-01-23T12:09:59.738Z,99540.88
2023-01-23T12:12:41.203Z,99547.69
2023-01-23T12:15:16.691Z,99556.09
2023-01-23T12:18:09.291Z,99551.22
2023-01-23T12:20:54.625Z,99555.50
2023-01-23T12:23:53.014Z,99543.22
2023-01-23T12:26:22.697Z,99549.97
2023-01-23T12:29:04.296Z,99541.69
2023-01-23T12:31:55.451Z,99547.78
2023-01-23T12:34:58.121Z,99552.75
2023-01-23T12:37:33.363Z,99550.44
2023-01-23T12:40:10.924Z,99559.03
2023-01-23T12:43:28.821Z,99563.00
2023-01-23T12:46:09.706Z,99567.00
2023-01-23T12:49:13.870Z,99562.09
2023-01-23T12:51:45.565Z,99547.13
2023-01-23T12:54:17.803Z,99562.19
2023-01-23T12:56:46.271Z,99578.19
2023-01-23T12:59:32.853Z,99582.84
2023-01-23T13:02:17.075Z,99569.69
2023-01-23T13:04:55.853Z,99575.06
2023-01-23T13:07:46.125Z,99557.59
2023-01-23T13:10:19.049Z,99560.03
2023-01-23T13:12:45.874Z,99567.00
2023-01-23T13:15:38.764Z,99571.25
2023-01-23T13:18:06.498Z,99564.78
2023-01-23T13:21:11.000Z,99560.25
2023-01-23T13:23:37.693Z,99571.19
2023-01-23T13:26:16.350Z,99558.75
2023-01-23T13:28:45.968Z,99561.19
2023-01-23T13:31:40.597Z,99567.31
2023-01-23T13:34:16.318Z,99565.41
2023-01-23T13:36:47.479Z,99576.47
2023-01-23T13:39:16.922Z,99566.06
2023-01-23T13:41:48.304Z,99576.28
2023-01-23T13:44:40.850Z,99570.84
2023-01-23T14:22:09.263Z,99592.06
2023-01-23T14:24:51.509Z,99594.53
2023-01-23T14:27:30.547Z,99599.81
2023-01-23T14:30:24.726Z,99605.84
2023-01-23T14:32:51.429Z,99597.56
2023-01-23T14:35:29.945Z,99611.22
2023-01-23T14:38:08.031Z,99598.34
2023-01-23T14:40:49.045Z,99609.66
2023-01-23T14:43:23.072Z,99601.75
2023-01-23T14:46:14.028Z,99608.28
2023-01-23T14:48:43.996Z,99613.31
2023-01-23T14:51:22.121Z,99618.16
2023-01-23T14:54:00.283Z,99612.09
2023-01-23T14:56:33.196Z,99618.38
2023-01-23T14:59:03.498Z,99613.88
2023-01-23T15:01:30.262Z,99628.06
2023-01-23T15:04:18.247Z,99624.75
2023-01-23T15:06:52.521Z,99620.00
2023-01-23T15:09:29.170Z,99618.28
2023-01-23T15:11:57.119Z,99620.34
2023-01-23T15:14:27.523Z,99608.91
2023-01-23T15:17:03.389Z,99609.31
2023-01-23T15:19:31.539Z,99613.53
2023-01-23T15:22:19.121Z,99617.81
2023-01-23T15:24:46.228Z,99613.66
2023-01-23T15:27:42.122Z,99613.44
2023-01-23T15:30:33.526Z,99615.16
2023-01-23T15:33:07.076Z,99616.47
2023-01-23T15:35:35.659Z,99606.38
2023-01-23T15:38:08.551Z,99618.72
2023-01-23T15:40:38.273Z,99619.56
2023-01-23T15:43:18.697Z,99626.50
2023-01-23T15:45:46.215Z,99626.22
2023-01-23T15:48:12.880Z,99643.19
2023-01-23T15:50:39.607Z,99635.84
2023-01-23T15:53:12.548Z,99645.34
2023-01-23T15:55:39.604Z,99638.09
2023-01-23T15:58:06.295Z,99646.13
2023-01-23T16:00:32.920Z,99641.22
2023-01-23T16:02:59.804Z,99644.41
2023-01-23T16:05:30.135Z,99642.59
2023-01-23T16:07:58.075Z,99646.59
2023-01-23T16:10:28.077Z,99644.41
2023-01-23T16:12:57.164Z,99651.72
2023-01-23T16:15:28.998Z,99645.84
2023-01-23T16:17:56.379Z,99644.78
2023-01-23T16:20:28.295Z,99655.34
2023-01-23T16:22:59.272Z,99658.28
2023-01-23T16:25:43.510Z,99664.25
2023-01-23T16:28:21.163Z,99664.59
2023-01-23T16:30:48.941Z,99671.06
2023-01-23T16:33:15.943Z,99667.03
2023-01-23T16:35:43.449Z,99672.53
2023-01-23T16:38:22.757Z,99678.34
2023-01-23T16:40:51.720Z,99667.03
2023-01-23T16:43:18.489Z,99671.78
2023-01-23T16:45:46.022Z,99666.16
2023-01-23T16:48:21.527Z,99675.31
2023-01-23T16:50:56.534Z,99671.16
2023-01-23T16:53:33.029Z,99666.31
2023-01-23T16:56:01.747Z,99677.75
2023-01-23T16:58:32.478Z,99669.97
2023-01-23T17:01:05.038Z,99668.84
2023-01-23T17:03:38.388Z,99676.28
2023-01-23T17:06:05.289Z,99669.34
2023-01-23T17:08:32.018Z,99674.34
2023-01-23T17:11:02.252Z,99678.94
2023-01-23T17:13:33.571Z,99661.69
2023-01-23T17:16:01.126Z,99662.38
2023-01-23T17:18:34.664Z,99676.63
2023-01-23T17:21:01.602Z,99677.38
2023-01-23T17:23:28.328Z,99673.72
2023-01-23T17:26:00.897Z,99684.56
2023-01-23T17:28:28.776Z,99680.16
2023-01-23T17:30:58.210Z,99680.06
2023-01-23T17:33:27.831Z,99686.53
2023-01-23T17:35:54.440Z,99679.94
2023-01-23T17:38:26.397Z,99684.31
2023-01-23T17:40:53.649Z,99686.88
2023-01-23T17:43:21.122Z,99695.75
2023-01-23T17:45:50.357Z,99680.50
2023-01-23T17:48:23.250Z,99694.03
2023-01-23T17:50:49.814Z,99696.72
2023-01-23T17:53:17.513Z,99696.22
2023-01-23T17:55:48.001Z,99701.06
2023-01-23T17:58:15.444Z,99698.38
2023-01-23T18:00:44.003Z,99703.75
2023-01-23T18:03:17.562Z,99700.31
2023-01-23T18:05:44.178Z,99707.88
2023-01-23T18:08:14.557Z,99699.59
2023-01-23T18:10:44.081Z,99701.06
2023-01-23T18:13:10.680Z,99703.75
2023-01-23T18:15:52.957Z,99708.88
2023-01-23T18:18:39.106Z,99703.75
2023-01-23T18:21:07.707Z,99701.56
2023-01-23T18:23:37.880Z,99696.31
2023-01-23T18:26:16.455Z,99713.97
2023-01-23T18:28:57.879Z,99716.16
2023-01-23T18:31:43.121Z,99712.41
2023-01-23T18:34:30.945Z,99715.03
2023-01-23T18:37:12.127Z,99708.66
2023-01-23T18:39:56.701Z,99715.53
2023-01-23T18:42:38.530Z,99708.72
2023-01-23T18:45:23.744Z,99710.19
2023-01-23T18:47:53.886Z,99714.38
2023-01-23T18:50:25.367Z,99716.31
2023-01-23T18:53:20.789Z,99714.19
2023-01-23T18:55:47.391Z,99718.59
2023-01-23T18:58:47.692Z,99717.00
2023-01-23T19:01:50.340Z,99717.25
2023-01-23T19:04:17.658Z,99717.00
2023-01-23T19:06:45.009Z,99720.53
2023-01-23T19:09:18.818Z,99715.63
2023-01-23T19:11:51.597Z,99717.81
2023-01-23T19:14:37.489Z,99715.88
2023-01-23T19:17:37.174Z,99721.13
2023-01-23T19:20:22.073Z,99720.13
2023-01-23T19:23:25.823Z,99721.13
2023-01-23T19:25:52.619Z,99724.63
2023-01-23T19:28:19.432Z,99729.94
2023-01-23T19:30:46.359Z,99736.13
2023-01-23T19:33:17.785Z,99732.03
2023-01-23T19:35:45.682Z,99737.03
2023-01-23T19:38:12.780Z,99734.50
2023-01-23T19:40:40.049Z,99740.81
2023-01-23T19:43:14.451Z,99739.84
2023-01-23T19:45:41.983Z,99741.66
2023-01-23T19:48:09.135Z,99734.72
2023-01-23T19:50:36.408Z,99747.47
2023-01-23T19:53:04.116Z,99737.84
2023-01-23T19:55:33.603Z,99744.56
2023-01-23T19:58:00.282Z,99754.63
2023-01-23T20:00:29.880Z,99747.06
2023-01-23T20:02:56.796Z,99745.06
2023-01-23T20:05:24.023Z,99757.06
2023-01-23T20:07:50.775Z,99748.41
2023-01-23T20:10:17.977Z,99745.88
2023-01-23T20:12:45.984Z,99743.06
2023-01-23T20:15:14.695Z,99748.75
2023-01-23T20:17:41.857Z,99742.34
2023-01-23T20:20:09.678Z,99741.81
2023-01-23T20:22:36.481Z,99743.88
2023-01-23T20:25:03.247Z,99739.47
2023-01-23T20:27:29.939Z,99748.59
2023-01-23T20:29:56.618Z,99736.63
2023-01-23T20:32:23.211Z,99737.28
2023-01-23T20:34:49.902Z,99738.84
2023-01-23T20:37:16.949Z,99735.66
2023-01-23T20:39:43.593Z,99742.28
2023-01-23T20:42:11.283Z,99747.81
2023-01-23T20:44:38.047Z,99748.06
2023-01-23T20:47:05.552Z,99753.09
2023-01-23T20:49:32.169Z,99752.47
2023-01-23T20:52:19.381Z,99749.19
2023-01-23T20:54:46.768Z,99761.06
2023-01-23T20:57:14.378Z,99751.94
2023-01-23T20:59:41.472Z,99762.13
2023-01-23T21:02:29.241Z,99765.53
2023-01-23T21:04:55.864Z,99769.06
2023-01-23T21:07:22.576Z,99760.66
2023-01-23T21:09:49.322Z,99771.03
2023-01-23T21:12:15.917Z,99763.97
2023-01-23T21:14:42.522Z,99774.97
2023-01-23T21:17:09.881Z,99774.00
2023-01-23T21:19:38.959Z,99759.81
2023-01-23T21:22:07.109Z,99771.44
2023-01-23T21:24:36.088Z,99768.09
2023-01-23T21:27:04.527Z,99770.03
2023-01-23T21:29:33.072Z,99771.97
2023-01-23T21:31:59.818Z,99782.66
2023-01-23T21:34:27.237Z,99774.19
2023-01-23T21:36:54.125Z,99772.28
2023-01-23T21:39:20.782Z,99775.06
2023-01-23T21:41:47.443Z,99776.78
2023-01-23T21:44:14.084Z,99776.69
2023-01-23T21:46:41.321Z,99766.97
2023-01-23T21:49:08.111Z,99764.06
2023-01-23T21:51:34.735Z,99762.34
2023-01-23T21:54:01.490Z,99770.66
2023-01-23T21:56:28.124Z,99769.41
2023-01-23T21:58:55.358Z,99766.50
2023-01-23T22:01:35.832Z,99772.84
2023-01-23T22:04:06.117Z,99753.28
2023-01-23T22:06:34.243Z,99754.13
2023-01-23T22:09:00.931Z,99747.94
2023-01-23T22:11:28.096Z,99763.63
2023-01-23T22:13:55.455Z,99763.34
2023-01-23T22:16:31.928Z,99762.88
2023-01-23T22:19:06.935Z,99754.25
2023-01-23T22:21:34.334Z,99756.19
2023-01-23T22:24:01.483Z,99754.88
2023-01-23T22:26:28.388Z,99755.50
2023-01-23T22:28:54.945Z,99754.69
2023-01-23T22:31:21.890Z,99746.84
2023-01-23T22:33:48.638Z,99751.25
2023-01-23T22:36:18.172Z,99759.25
2023-01-23T22:38:50.144Z,99753.59
2023-01-23T22:41:16.729Z,99751.66
2023-01-23T22:43:43.325Z,99748.66
2023-01-23T22:46:15.761Z,99743.84
2023-01-23T22:48:42.892Z,99743.50
2023-01-23T22:51:20.853Z,99746.19
2023-01-23T22:53:48.240Z,99750.03
2023-01-23T22:56:15.318Z,99760.72
2023-01-23T22:58:49.726Z,99762.84
2023-01-23T23:01:17.336Z,99762.22
2023-01-23T23:03:44.873Z,99755.41
2023-01-23T23:06:14.216Z,99758.63
2023-01-23T23:08:41.497Z,99750.31
2023-01-23T23:11:16.903Z,99749.13
2023-01-23T23:13:43.612Z,99740.59
2023-01-23T23:16:22.232Z,99756.59
2023-01-23T23:18:50.806Z,99758.63
2023-01-23T23:21:20.337Z,99758.84
2023-01-23T23:23:47.726Z,99752.34
2023-01-23T23:26:15.536Z,99753.59
2023-01-23T23:28:42.420Z,99750.94
2023-01-23T23:31:09.784Z,99749.44
2023-01-23T23:33:36.836Z,99758.41
2023-01-23T23:36:03.677Z,99753.06
2023-01-23T23:38:30.322Z,99758.00
2023-01-23T23:40:58.868Z,99754.78
2023-01-23T23:43:26.112Z,99766.88
2023-01-23T23:46:04.326Z,99766.09
2023-01-23T23:48:32.019Z,99762.78
2023-01-23T23:51:07.116Z,99763.78
2023-01-23T23:53:35.011Z,99756.94
2023-01-23T23:56:01.870Z,99765.69
2023-01-23T23:58:28.559Z,99768.44
